createdAt,value
2018-07-20T00:01:03.861Z,20.60
2018-07-20T00:03:33.218Z,20.60
2018-07-20T00:06:01.494Z,20.60
2018-07-20T00:08:30.191Z,20.50
2018-07-20T00:11:11.001Z,20.50
2018-07-20T00:13:52.188Z,20.50
2018-07-20T00:16:32.530Z,20.50
2018-07-20T00:19:13.246Z,20.50
2018-07-20T00:21:54.417Z,20.40
2018-07-20T00:24:34.743Z,20.40
2018-07-20T00:27:15.384Z,20.40
2018-07-20T00:29:55.960Z,20.30
2018-07-20T00:32:31.706Z,20.30
2018-07-20T00:35:12.471Z,20.30
2018-07-20T00:37:42.658Z,20.20
2018-07-20T00:40:10.829Z,20.20
2018-07-20T00:42:51.953Z,20.20
2018-07-20T00:45:32.744Z,20.20
2018-07-20T00:48:00.988Z,20.20
2018-07-20T00:50:42.096Z,20.10
2018-07-20T00:53:14.242Z,20.10
2018-07-20T00:55:43.976Z,20.10
2018-07-20T00:58:24.297Z,20.10
2018-07-20T01:01:05.184Z,20.00
2018-07-20T01:03:45.537Z,20.00
2018-07-20T01:06:13.805Z,20.00
2018-07-20T01:08:45.821Z,19.90
2018-07-20T01:11:20.352Z,19.90
2018-07-20T01:13:48.837Z,19.90
2018-07-20T01:16:22.848Z,19.90
2018-07-20T01:19:01.680Z,19.80
2018-07-20T01:21:29.939Z,19.80
2018-07-20T01:24:10.295Z,19.80
2018-07-20T01:26:51.055Z,19.80
2018-07-20T01:29:19.372Z,19.80
2018-07-20T01:31:47.621Z,19.80
2018-07-20T01:34:28.673Z,19.70
2018-07-20T01:37:02.520Z,19.70
2018-07-20T01:39:43.201Z,19.70
2018-07-20T01:42:13.512Z,19.70
2018-07-20T01:44:54.480Z,19.70
2018-07-20T01:47:35.150Z,19.60
2018-07-20T01:50:08.694Z,19.60
2018-07-20T01:52:36.903Z,19.60
2018-07-20T01:55:17.274Z,19.60
2018-07-20T01:57:57.937Z,19.60
2018-07-20T02:00:38.759Z,19.60
2018-07-20T02:03:07.185Z,19.50
2018-07-20T02:05:36.036Z,19.60
2018-07-20T02:08:16.301Z,19.50
2018-07-20T02:10:49.992Z,19.50
2018-07-20T02:13:18.213Z,19.50
2018-07-20T02:15:46.401Z,19.50
2018-07-20T02:18:14.627Z,19.50
2018-07-20T02:20:42.825Z,19.50
2018-07-20T02:23:16.549Z,19.50
2018-07-20T02:25:48.159Z,19.50
2018-07-20T02:28:28.596Z,19.50
2018-07-20T02:30:57.127Z,19.40
2018-07-20T02:33:25.331Z,19.40
2018-07-20T02:36:05.734Z,19.40
2018-07-20T02:38:33.977Z,19.40
2018-07-20T02:41:14.471Z,19.40
2018-07-20T02:43:55.064Z,19.40
2018-07-20T02:46:23.300Z,19.40
2018-07-20T02:48:51.509Z,19.40
2018-07-20T02:51:31.635Z,19.30
2018-07-20T02:53:59.988Z,19.30
2018-07-20T02:56:40.468Z,19.30
2018-07-20T02:59:21.157Z,19.30
2018-07-20T03:01:49.384Z,19.30
2018-07-20T03:04:29.565Z,19.30
2018-07-20T03:07:10.340Z,19.30
2018-07-20T03:09:51.172Z,19.20
2018-07-20T03:12:19.411Z,19.20
2018-07-20T03:14:59.735Z,19.20
2018-07-20T03:17:40.481Z,19.20
2018-07-20T03:20:10.106Z,19.20
2018-07-20T03:22:50.543Z,19.30
2018-07-20T03:25:31.401Z,19.30
2018-07-20T03:28:12.007Z,19.10
2018-07-20T03:30:52.951Z,19.20
2018-07-20T03:33:34.424Z,19.20
2018-07-20T03:38:48.904Z,19.20
2018-07-20T03:41:29.671Z,19.20
2018-07-20T03:44:10.405Z,19.20
2018-07-20T03:46:51.095Z,19.30
2018-07-20T03:49:22.342Z,19.30
2018-07-20T03:51:51.248Z,19.30
2018-07-20T03:54:19.487Z,19.30
2018-07-20T03:56:51.027Z,19.30
2018-07-20T03:59:20.636Z,19.40
2018-07-20T04:01:48.955Z,19.40
2018-07-20T04:04:17.733Z,19.40
2018-07-20T04:06:46.664Z,19.50
2018-07-20T04:09:18.884Z,19.50
2018-07-20T04:11:59.045Z,19.50
2018-07-20T04:14:27.749Z,19.60
2018-07-20T04:16:57.130Z,19.60
2018-07-20T04:19:27.908Z,19.40
2018-07-20T04:21:56.175Z,19.40
2018-07-20T04:24:24.464Z,19.40
2018-07-20T04:27:04.818Z,19.50
2018-07-20T04:29:45.543Z,19.60
2018-07-20T04:32:13.808Z,19.70
2018-07-20T04:34:42.967Z,19.80
2018-07-20T04:37:23.668Z,19.80
2018-07-20T04:39:52.663Z,19.90
2018-07-20T04:42:31.060Z,19.90
2018-07-20T04:45:00.352Z,20.00
2018-07-20T04:47:40.982Z,20.10
2018-07-20T04:50:21.719Z,20.20
2018-07-20T04:53:02.416Z,20.20
2018-07-20T04:55:30.607Z,20.20
2018-07-20T04:57:58.840Z,20.30
2018-07-20T05:00:39.736Z,20.30
2018-07-20T05:03:20.431Z,20.30
2018-07-20T05:06:01.167Z,20.40
2018-07-20T05:08:29.356Z,20.60
2018-07-20T05:11:10.754Z,20.70
2018-07-20T05:13:39.024Z,21.00
2018-07-20T05:16:20.013Z,21.30
2018-07-20T05:19:00.130Z,21.30
2018-07-20T05:21:28.352Z,21.30
2018-07-20T05:24:09.534Z,21.10
2018-07-20T05:26:50.298Z,21.10
2018-07-20T05:29:31.086Z,21.10
2018-07-20T05:32:11.790Z,21.00
2018-07-20T05:34:52.581Z,21.10
2018-07-20T05:37:33.332Z,21.10
2018-07-20T05:40:13.930Z,21.10
2018-07-20T05:42:54.581Z,21.10
2018-07-20T05:45:28.262Z,21.20
2018-07-20T05:48:09.070Z,21.20
2018-07-20T05:50:49.903Z,21.20
2018-07-20T05:53:18.256Z,21.20
2018-07-20T05:55:49.227Z,21.30
2018-07-20T05:58:29.356Z,21.40
2018-07-20T06:01:10.057Z,21.30
2018-07-20T06:03:38.394Z,21.40
2018-07-20T06:06:06.671Z,21.50
2018-07-20T06:08:38.546Z,21.60
2018-07-20T06:11:07.021Z,21.60
2018-07-20T06:13:47.486Z,21.70
2018-07-20T06:17:46.323Z,21.70
2018-07-20T06:20:27.058Z,21.80
2018-07-20T06:22:55.403Z,21.80
2018-07-20T06:25:36.309Z,22.00
2018-07-20T06:28:04.541Z,22.00
2018-07-20T06:30:32.786Z,22.00
2018-07-20T06:33:01.912Z,22.10
2018-07-20T06:35:42.816Z,22.20
2018-07-20T06:38:11.063Z,22.10
2018-07-20T06:40:39.540Z,22.10
2018-07-20T06:43:07.820Z,22.00
2018-07-20T06:45:48.003Z,22.00
2018-07-20T06:48:28.755Z,22.10
2018-07-20T06:51:09.376Z,22.20
2018-07-20T06:53:50.081Z,22.20
2018-07-20T06:56:31.046Z,22.20
2018-07-20T06:59:11.393Z,22.10
2018-07-20T07:01:52.019Z,22.20
2018-07-20T07:04:32.962Z,22.20
2018-07-20T07:07:13.592Z,22.20
2018-07-20T07:09:41.837Z,22.20
2018-07-20T07:12:22.160Z,22.10
2018-07-20T07:14:50.608Z,22.20
2018-07-20T07:17:31.454Z,22.20
2018-07-20T07:20:12.188Z,22.20
2018-07-20T07:22:52.848Z,22.10
2018-07-20T07:25:33.625Z,22.30
2018-07-20T07:28:14.316Z,22.40
2018-07-20T07:30:55.042Z,22.50
2018-07-20T07:33:35.699Z,22.50
2018-07-20T07:36:16.470Z,22.50
2018-07-20T07:38:57.197Z,22.70
2018-07-20T07:41:37.797Z,22.80
2018-07-20T07:44:18.547Z,22.90
2018-07-20T07:46:46.795Z,22.90
2018-07-20T07:49:28.055Z,22.90
2018-07-20T07:54:30.698Z,23.10
2018-07-20T07:57:11.025Z,23.20
2018-07-20T07:59:51.617Z,22.90
2018-07-20T08:02:19.845Z,23.40
2018-07-20T08:04:48.190Z,23.40
2018-07-20T08:07:28.860Z,23.40
2018-07-20T08:10:09.686Z,23.40
2018-07-20T08:12:38.033Z,23.50
2018-07-20T08:15:07.018Z,23.50
2018-07-20T08:17:43.336Z,23.40
2018-07-20T08:20:23.677Z,23.40
2018-07-20T08:23:04.430Z,23.50
2018-07-20T08:25:33.016Z,23.40
2018-07-20T08:28:02.425Z,23.50
2018-07-20T08:30:42.547Z,23.50
2018-07-20T08:33:23.355Z,23.50
2018-07-20T08:35:51.634Z,23.60
2018-07-20T08:38:32.762Z,23.70
2018-07-20T08:41:01.005Z,23.70
2018-07-20T08:46:09.284Z,23.50
2018-07-20T08:48:49.919Z,23.60
2018-07-20T08:51:18.209Z,23.70
2018-07-20T08:53:58.669Z,23.90
2018-07-20T08:56:27.040Z,24.00
2018-07-20T08:58:55.471Z,24.00
2018-07-20T09:01:35.931Z,24.10
2018-07-20T09:04:04.265Z,24.10
2018-07-20T09:06:44.469Z,24.20
2018-07-20T09:09:25.574Z,24.20
2018-07-20T09:12:06.044Z,24.20
2018-07-20T09:14:46.733Z,24.30
2018-07-20T09:17:27.593Z,24.20
2018-07-20T09:20:09.399Z,24.20
2018-07-20T09:22:49.809Z,24.30
2018-07-20T09:25:30.565Z,24.40
2018-07-20T09:28:11.428Z,24.40
2018-07-20T09:30:39.646Z,24.40
2018-07-20T09:33:19.868Z,24.40
2018-07-20T09:36:01.199Z,24.60
2018-07-20T09:38:42.276Z,24.80
2018-07-20T09:41:22.892Z,24.80
2018-07-20T09:44:04.174Z,24.90
2018-07-20T09:46:45.133Z,25.10
2018-07-20T09:49:25.861Z,25.00
2018-07-20T09:54:41.282Z,25.20
2018-07-20T09:57:09.644Z,25.50
2018-07-20T09:59:51.582Z,25.70
2018-07-20T10:02:32.534Z,25.90
2018-07-20T10:05:13.599Z,25.80
2018-07-20T10:07:54.577Z,25.80
2018-07-20T10:10:34.909Z,25.90
2018-07-20T10:13:15.736Z,26.00
2018-07-20T10:15:44.155Z,26.10
2018-07-20T10:18:24.617Z,26.10
2018-07-20T10:20:54.813Z,26.10
2018-07-20T10:23:35.968Z,25.90
2018-07-20T10:26:05.330Z,25.80
2018-07-20T10:28:46.482Z,25.80
2018-07-20T10:31:14.901Z,25.50
2018-07-20T10:33:55.139Z,25.80
2018-07-20T10:36:35.940Z,26.10
2018-07-20T10:39:16.787Z,26.10
2018-07-20T10:41:45.148Z,26.30
2018-07-20T10:44:29.941Z,26.60
2018-07-20T10:49:39.486Z,28.50
2018-07-20T10:52:20.501Z,29.70
2018-07-20T10:54:48.874Z,31.00
2018-07-20T10:57:29.988Z,32.10
2018-07-20T11:00:10.660Z,32.30
2018-07-20T11:02:51.194Z,32.60
2018-07-20T11:05:31.781Z,33.90
2018-07-20T11:08:12.449Z,35.30
2018-07-20T11:10:53.129Z,36.70
2018-07-20T11:13:35.189Z,37.60
2018-07-20T11:16:04.668Z,37.50
2018-07-20T11:18:34.424Z,37.40
2018-07-20T11:21:03.588Z,36.30
2018-07-20T11:23:31.925Z,36.00
2018-07-20T11:26:06.114Z,36.00
2018-07-20T11:28:35.070Z,36.40
2018-07-20T11:31:03.493Z,36.10
2018-07-20T11:33:31.694Z,36.10
2018-07-20T11:36:00.995Z,36.50
2018-07-20T11:38:29.243Z,36.40
2018-07-20T11:41:09.721Z,35.10
2018-07-20T11:43:38.261Z,34.90
2018-07-20T11:46:19.310Z,35.80
2018-07-20T11:48:59.826Z,36.40
2018-07-20T11:51:29.100Z,37.20
2018-07-20T11:53:59.933Z,37.30
2018-07-20T11:56:28.235Z,36.50
2018-07-20T11:58:56.477Z,35.50
2018-07-20T12:01:36.732Z,36.10
2018-07-20T12:04:06.503Z,36.50
2018-07-20T12:06:34.807Z,37.20
2018-07-20T12:09:03.086Z,37.80
2018-07-20T12:11:31.341Z,37.90
2018-07-20T12:14:03.334Z,36.70
2018-07-20T12:16:44.313Z,37.00
2018-07-20T12:19:24.930Z,38.00
2018-07-20T12:22:05.798Z,37.50
2018-07-20T12:24:46.331Z,36.00
2018-07-20T12:27:14.520Z,35.00
2018-07-20T12:29:56.678Z,34.50
2018-07-20T12:32:37.145Z,34.40
2018-07-20T12:35:17.720Z,34.10
2018-07-20T12:37:58.537Z,34.90
2018-07-20T12:40:39.265Z,35.90
2018-07-20T12:43:19.777Z,37.40
2018-07-20T12:45:48.031Z,37.40
2018-07-20T12:48:28.941Z,35.60
2018-07-20T12:51:09.694Z,34.40
2018-07-20T12:53:38.001Z,33.80
2018-07-20T12:56:18.262Z,33.70
2018-07-20T12:58:46.556Z,32.70
2018-07-20T13:01:27.782Z,32.30
2018-07-20T13:04:08.183Z,31.90
2018-07-20T13:06:48.931Z,31.10
2018-07-20T13:09:29.573Z,30.90
2018-07-20T13:12:10.407Z,30.40
2018-07-20T13:14:51.700Z,29.80
2018-07-20T13:17:26.732Z,29.40
2018-07-20T13:20:07.472Z,29.50
2018-07-20T13:22:35.695Z,29.60
2018-07-20T13:25:15.904Z,29.30
2018-07-20T13:27:44.684Z,29.20
2018-07-20T13:30:25.481Z,29.40
2018-07-20T13:32:53.859Z,29.30
2018-07-20T13:35:22.085Z,29.20
2018-07-20T13:37:50.391Z,29.50
2018-07-20T13:40:31.414Z,30.10
2018-07-20T13:43:09.365Z,30.30
2018-07-20T13:45:37.655Z,30.60
2018-07-20T13:48:18.771Z,30.80
2018-07-20T13:50:59.538Z,30.80
2018-07-20T13:56:07.759Z,30.40
2018-07-20T14:01:04.989Z,30.10
2018-07-20T14:03:35.673Z,30.10
2018-07-20T14:06:03.965Z,30.30
2018-07-20T14:08:32.662Z,30.40
2018-07-20T14:11:13.359Z,30.30
2018-07-20T14:13:54.007Z,30.00
2018-07-20T14:16:34.687Z,29.70
2018-07-20T14:19:03.038Z,29.80
2018-07-20T14:21:32.397Z,29.60
2018-07-20T14:24:00.821Z,29.80
2018-07-20T14:26:29.828Z,30.00
2018-07-20T14:29:10.585Z,30.20
2018-07-20T14:31:39.050Z,30.30
2018-07-20T14:34:20.031Z,30.10
2018-07-20T14:36:48.529Z,30.20
2018-07-20T14:39:18.660Z,30.30
2018-07-20T14:41:46.988Z,30.50
2018-07-20T14:44:28.091Z,30.40
2018-07-20T14:47:08.681Z,30.40
2018-07-20T14:49:49.343Z,30.50
2018-07-20T14:52:30.071Z,30.60
2018-07-20T14:54:58.391Z,30.70
2018-07-20T14:57:26.685Z,30.00
2018-07-20T15:00:07.373Z,30.10
2018-07-20T15:02:48.379Z,30.30
2018-07-20T15:05:29.155Z,30.20
2018-07-20T15:07:57.515Z,30.60
2018-07-20T15:10:38.508Z,31.00
2018-07-20T15:13:06.809Z,31.20
2018-07-20T15:15:35.287Z,31.50
2018-07-20T15:18:03.620Z,31.60
2018-07-20T15:20:44.696Z,31.30
2018-07-20T15:23:25.470Z,30.70
2018-07-20T15:25:53.787Z,31.00
2018-07-20T15:28:34.855Z,31.60
2018-07-20T15:31:03.157Z,31.60
2018-07-20T15:33:44.399Z,31.80
2018-07-20T15:36:24.874Z,31.80
2018-07-20T15:39:06.751Z,31.80
2018-07-20T15:41:35.112Z,31.90
2018-07-20T15:44:03.459Z,32.00
2018-07-20T15:46:31.869Z,32.40
2018-07-20T15:49:12.797Z,32.30
2018-07-20T15:53:35.207Z,32.90
2018-07-20T15:54:09.538Z,33.40
2018-07-20T15:56:38.656Z,33.10
2018-07-20T15:59:19.436Z,32.70
2018-07-20T16:02:00.249Z,32.50
2018-07-20T16:04:28.580Z,32.20
2018-07-20T16:07:03.472Z,32.00
2018-07-20T16:09:44.680Z,32.10
2018-07-20T16:12:24.997Z,32.60
2018-07-20T16:14:54.203Z,33.10
2018-07-20T16:17:23.695Z,32.50
2018-07-20T16:19:52.081Z,32.60
2018-07-20T16:22:20.455Z,32.40
2018-07-20T16:24:48.704Z,32.10
2018-07-20T16:27:17.004Z,32.10
2018-07-20T16:29:58.427Z,32.20
2018-07-20T16:32:26.743Z,32.10
2018-07-20T16:34:55.064Z,32.50
2018-07-20T16:37:23.736Z,33.00
2018-07-20T16:39:52.019Z,33.40
2018-07-20T16:42:32.297Z,33.90
2018-07-20T16:45:13.274Z,34.10
2018-07-20T16:47:41.544Z,34.50
2018-07-20T16:52:37.891Z,32.80
2018-07-20T16:55:06.746Z,32.70
2018-07-20T16:57:35.159Z,32.50
2018-07-20T17:00:05.750Z,32.30
2018-07-20T17:02:34.231Z,32.10
2018-07-20T17:05:14.519Z,32.00
2018-07-20T17:07:55.488Z,31.80
2018-07-20T17:10:23.891Z,31.80
2018-07-20T17:12:52.358Z,31.80
2018-07-20T17:18:01.309Z,31.90
2018-07-20T17:20:42.304Z,31.70
2018-07-20T17:23:10.789Z,31.70
2018-07-20T17:25:51.681Z,31.80
2018-07-20T17:28:19.976Z,31.70
2018-07-20T17:30:48.263Z,31.50
2018-07-20T17:33:28.895Z,31.20
2018-07-20T17:35:57.474Z,31.00
2018-07-20T17:38:38.679Z,30.70
2018-07-20T17:41:19.160Z,30.60
2018-07-20T17:43:59.931Z,30.50
2018-07-20T17:46:28.295Z,30.30
2018-07-20T17:49:08.595Z,30.10
2018-07-20T17:51:49.411Z,30.00
2018-07-20T17:54:23.641Z,29.80
2018-07-20T17:57:03.969Z,29.60
2018-07-20T17:59:32.277Z,29.50
2018-07-20T18:02:13.459Z,29.40
2018-07-20T18:04:41.728Z,29.30
2018-07-20T18:07:22.890Z,29.20
2018-07-20T18:09:52.355Z,29.00
2018-07-20T18:12:20.921Z,28.80
2018-07-20T18:14:50.794Z,28.80
2018-07-20T18:17:19.064Z,28.80
2018-07-20T18:19:49.407Z,28.60
2018-07-20T18:22:18.786Z,28.40
2018-07-20T18:25:00.462Z,28.30
2018-07-20T18:27:40.958Z,28.30
2018-07-20T18:30:22.004Z,28.20
2018-07-20T18:33:02.525Z,27.90
2018-07-20T18:35:43.121Z,27.50
2018-07-20T18:38:23.724Z,27.40
2018-07-20T18:40:52.014Z,27.20
2018-07-20T18:43:20.349Z,26.90
2018-07-20T18:45:48.593Z,26.70
2018-07-20T18:48:28.849Z,26.60
2018-07-20T18:50:57.126Z,26.50
2018-07-20T18:53:37.356Z,26.60
2018-07-20T18:56:17.972Z,26.50
2018-07-20T18:58:58.822Z,26.40
2018-07-20T19:01:39.365Z,26.30
2018-07-20T19:04:20.168Z,26.10
2018-07-20T19:07:01.025Z,26.00
2018-07-20T19:09:41.553Z,26.00
2018-07-20T19:12:09.997Z,25.90
2018-07-20T19:14:38.238Z,25.90
2018-07-20T19:17:06.610Z,25.80
2018-07-20T19:19:35.633Z,25.80
2018-07-20T19:22:03.848Z,25.60
2018-07-20T19:24:44.166Z,25.50
2018-07-20T19:27:24.775Z,25.60
2018-07-20T19:29:53.024Z,25.60
2018-07-20T19:32:21.297Z,25.60
2018-07-20T19:35:02.120Z,25.50
2018-07-20T19:37:30.397Z,25.50
2018-07-20T19:40:02.340Z,25.30
2018-07-20T19:42:43.543Z,25.20
2018-07-20T19:45:11.908Z,25.10
2018-07-20T19:47:40.181Z,24.90
2018-07-20T19:52:43.966Z,24.80
2018-07-20T19:55:24.208Z,24.80
2018-07-20T19:57:54.404Z,24.80
2018-07-20T20:00:35.531Z,24.80
2018-07-20T20:03:16.047Z,24.60
2018-07-20T20:05:44.264Z,24.50
2018-07-20T20:08:12.535Z,24.50
2018-07-20T20:10:53.386Z,24.50
2018-07-20T20:13:34.061Z,24.40
2018-07-20T20:16:14.704Z,24.40
2018-07-20T20:18:55.546Z,24.40
2018-07-20T20:21:24.285Z,24.40
2018-07-20T20:24:04.875Z,24.40
2018-07-20T20:26:34.499Z,24.40
2018-07-20T20:29:03.723Z,24.30
2018-07-20T20:31:32.446Z,24.10
2018-07-20T20:34:13.035Z,23.90
2018-07-20T20:36:53.648Z,23.90
2018-07-20T20:39:22.134Z,23.90
2018-07-20T20:42:03.267Z,23.70
2018-07-20T20:44:33.457Z,23.70
2018-07-20T20:47:02.797Z,23.50
2018-07-20T20:49:34.562Z,23.50
2018-07-20T20:52:02.999Z,23.70
2018-07-20T20:54:38.771Z,23.70
2018-07-20T20:57:07.111Z,23.80
2018-07-20T20:59:35.362Z,23.80
2018-07-20T21:02:05.251Z,23.70
2018-07-20T21:04:45.537Z,23.60
2018-07-20T21:07:26.401Z,23.50
2018-07-20T21:09:54.719Z,23.50
2018-07-20T21:12:35.690Z,23.50
2018-07-20T21:15:04.881Z,23.50
2018-07-20T21:17:33.337Z,23.40
2018-07-20T21:20:01.797Z,23.30
2018-07-20T21:22:30.203Z,23.40
2018-07-20T21:25:10.574Z,23.40
2018-07-20T21:30:15.244Z,23.60
2018-07-20T21:32:55.686Z,23.40
2018-07-20T21:35:27.026Z,23.50
2018-07-20T21:40:36.264Z,23.50
2018-07-20T21:43:16.573Z,23.30
2018-07-20T21:45:50.403Z,23.20
2018-07-20T21:48:19.506Z,23.00
2018-07-20T21:51:00.432Z,22.90
2018-07-20T21:53:40.781Z,22.90
2018-07-20T21:56:21.441Z,22.90
2018-07-20T21:58:49.946Z,22.90
2018-07-20T22:01:30.878Z,22.80
2018-07-20T22:04:11.400Z,22.90
2018-07-20T22:06:52.091Z,22.90
2018-07-20T22:09:32.830Z,22.90
2018-07-20T22:12:01.604Z,22.90
2018-07-20T22:14:42.289Z,22.90
2018-07-20T22:17:23.006Z,22.90
2018-07-20T22:19:53.029Z,22.70
2018-07-20T22:22:34.722Z,22.60
2018-07-20T22:25:04.217Z,22.70
2018-07-20T22:27:32.462Z,22.80
2018-07-20T22:30:02.339Z,22.80
2018-07-20T22:32:30.569Z,22.70
2018-07-20T22:34:59.205Z,22.70
2018-07-20T22:37:40.148Z,22.60
2018-07-20T22:40:11.122Z,22.60
2018-07-20T22:42:40.544Z,22.60
2018-07-20T22:45:08.815Z,22.40
2018-07-20T22:47:37.039Z,22.30
2018-07-20T22:50:05.603Z,22.30
2018-07-20T22:52:33.801Z,22.30
2018-07-20T22:55:15.046Z,22.40
2018-07-20T22:57:55.785Z,22.30
2018-07-20T23:00:36.546Z,22.30
2018-07-20T23:03:17.110Z,22.40
2018-07-20T23:05:57.673Z,22.50
2018-07-20T23:08:25.988Z,22.40
2018-07-20T23:10:54.308Z,22.30
2018-07-20T23:13:35.158Z,22.20
2018-07-20T23:16:15.971Z,22.20
2018-07-20T23:18:48.306Z,22.10
2018-07-20T23:21:28.605Z,22.10
2018-07-20T23:24:09.357Z,22.10
2018-07-20T23:26:37.583Z,22.10
2018-07-20T23:29:17.807Z,22.10
2018-07-20T23:31:58.509Z,22.00
2018-07-20T23:34:27.808Z,21.90
2018-07-20T23:36:57.003Z,21.80
2018-07-20T23:39:25.259Z,21.70
2018-07-20T23:42:05.503Z,21.70
2018-07-20T23:44:33.733Z,21.70
2018-07-20T23:47:03.892Z,21.50
2018-07-20T23:49:33.048Z,21.60
2018-07-20T23:52:03.542Z,21.60
2018-07-20T23:54:35.088Z,21.60
2018-07-20T23:57:04.887Z,21.60
2018-07-20T23:59:35.227Z,21.50
